sensor_id;sensor_type;location;lat;lon;timestamp;P1;durP1;ratioP1;P2;durP2;ratioP2
80175;SDS011;71945;42.122;24.732;2023-08-21T00:00:22;12.10;;;9.35;;
80175;SDS011;71945;42.122;24.732;2023-08-21T00:02:47;14.85;;;8.85;;
80175;SDS011;71945;42.122;24.732;2023-08-21T00:05:13;11.43;;;9.25;;
80175;SDS011;71945;42.122;24.732;2023-08-21T00:07:39;10.15;;;9.07;;
80175;SDS011;71945;42.122;24.732;2023-08-21T00:10:04;12.30;;;9.18;;
80175;SDS011;71945;42.122;24.732;2023-08-21T00:12:30;11.60;;;8.82;;
80175;SDS011;71945;42.122;24.732;2023-08-21T00:14:57;12.18;;;8.73;;
80175;SDS011;71945;42.122;24.732;2023-08-21T00:17:23;11.43;;;10.20;;
80175;SDS011;71945;42.122;24.732;2023-08-21T00:19:48;17.58;;;9.30;;
80175;SDS011;71945;42.122;24.732;2023-08-21T00:22:14;16.90;;;10.88;;
80175;SDS011;71945;42.122;24.732;2023-08-21T00:24:40;14.90;;;10.10;;
80175;SDS011;71945;42.122;24.732;2023-08-21T00:27:05;12.70;;;10.73;;
80175;SDS011;71945;42.122;24.732;2023-08-21T00:29:31;14.30;;;8.65;;
80175;SDS011;71945;42.122;24.732;2023-08-21T00:31:57;11.07;;;8.88;;
80175;SDS011;71945;42.122;24.732;2023-08-21T00:34:22;12.52;;;9.02;;
80175;SDS011;71945;42.122;24.732;2023-08-21T00:36:48;10.23;;;9.23;;
80175;SDS011;71945;42.122;24.732;2023-08-21T00:39:14;14.15;;;9.48;;
80175;SDS011;71945;42.122;24.732;2023-08-21T00:41:40;12.50;;;9.60;;
80175;SDS011;71945;42.122;24.732;2023-08-21T00:44:05;11.68;;;10.45;;
80175;SDS011;71945;42.122;24.732;2023-08-21T00:46:31;10.88;;;9.77;;
80175;SDS011;71945;42.122;24.732;2023-08-21T00:48:57;10.68;;;9.48;;
80175;SDS011;71945;42.122;24.732;2023-08-21T00:51:23;11.88;;;8.93;;
80175;SDS011;71945;42.122;24.732;2023-08-21T00:53:49;10.85;;;9.00;;
80175;SDS011;71945;42.122;24.732;2023-08-21T00:56:15;12.10;;;9.55;;
80175;SDS011;71945;42.122;24.732;2023-08-21T00:58:40;16.40;;;9.68;;
80175;SDS011;71945;42.122;24.732;2023-08-21T01:01:07;12.05;;;10.20;;
80175;SDS011;71945;42.122;24.732;2023-08-21T01:03:33;13.77;;;9.32;;
80175;SDS011;71945;42.122;24.732;2023-08-21T01:05:58;9.60;;;8.70;;
80175;SDS011;71945;42.122;24.732;2023-08-21T01:11:16;12.45;;;9.00;;
80175;SDS011;71945;42.122;24.732;2023-08-21T01:17:02;12.85;;;8.65;;
80175;SDS011;71945;42.122;24.732;2023-08-21T01:19:37;9.88;;;8.13;;
80175;SDS011;71945;42.122;24.732;2023-08-21T01:22:07;11.93;;;8.95;;
80175;SDS011;71945;42.122;24.732;2023-08-21T01:24:33;10.02;;;8.38;;
80175;SDS011;71945;42.122;24.732;2023-08-21T01:26:59;11.27;;;8.93;;
80175;SDS011;71945;42.122;24.732;2023-08-21T01:29:25;12.52;;;8.35;;
80175;SDS011;71945;42.122;24.732;2023-08-21T01:32:14;10.05;;;8.93;;
80175;SDS011;71945;42.122;24.732;2023-08-21T01:34:40;9.43;;;8.55;;
80175;SDS011;71945;42.122;24.732;2023-08-21T01:37:08;11.68;;;8.88;;
80175;SDS011;71945;42.122;24.732;2023-08-21T01:39:34;12.15;;;9.38;;
80175;SDS011;71945;42.122;24.732;2023-08-21T01:42:00;12.18;;;9.05;;
80175;SDS011;71945;42.122;24.732;2023-08-21T01:44:25;11.07;;;8.75;;
80175;SDS011;71945;42.122;24.732;2023-08-21T01:46:52;11.30;;;8.15;;
80175;SDS011;71945;42.122;24.732;2023-08-21T01:49:18;9.27;;;8.35;;
80175;SDS011;71945;42.122;24.732;2023-08-21T01:51:44;10.18;;;9.13;;
80175;SDS011;71945;42.122;24.732;2023-08-21T01:54:13;10.85;;;9.00;;
80175;SDS011;71945;42.122;24.732;2023-08-21T01:56:39;10.73;;;9.32;;
80175;SDS011;71945;42.122;24.732;2023-08-21T01:59:05;10.25;;;9.32;;
80175;SDS011;71945;42.122;24.732;2023-08-21T02:01:31;9.95;;;8.95;;
80175;SDS011;71945;42.122;24.732;2023-08-21T02:03:57;10.60;;;9.30;;
80175;SDS011;71945;42.122;24.732;2023-08-21T02:06:23;10.95;;;8.77;;
80175;SDS011;71945;42.122;24.732;2023-08-21T02:08:49;10.40;;;9.30;;
80175;SDS011;71945;42.122;24.732;2023-08-21T02:11:14;10.63;;;8.82;;
80175;SDS011;71945;42.122;24.732;2023-08-21T02:13:40;11.40;;;9.13;;
80175;SDS011;71945;42.122;24.732;2023-08-21T02:16:06;12.75;;;9.32;;
80175;SDS011;71945;42.122;24.732;2023-08-21T02:18:32;13.60;;;9.57;;
80175;SDS011;71945;42.122;24.732;2023-08-21T02:20:59;10.77;;;9.77;;
80175;SDS011;71945;42.122;24.732;2023-08-21T02:23:26;9.63;;;8.73;;
80175;SDS011;71945;42.122;24.732;2023-08-21T02:25:52;10.70;;;8.48;;
80175;SDS011;71945;42.122;24.732;2023-08-21T02:28:18;9.60;;;8.57;;
80175;SDS011;71945;42.122;24.732;2023-08-21T02:30:44;10.68;;;8.63;;
80175;SDS011;71945;42.122;24.732;2023-08-21T02:33:10;12.45;;;9.15;;
80175;SDS011;71945;42.122;24.732;2023-08-21T02:35:36;14.48;;;9.70;;
80175;SDS011;71945;42.122;24.732;2023-08-21T02:38:02;13.77;;;9.95;;
80175;SDS011;71945;42.122;24.732;2023-08-21T02:40:28;9.95;;;9.02;;
80175;SDS011;71945;42.122;24.732;2023-08-21T02:42:53;11.77;;;10.02;;
80175;SDS011;71945;42.122;24.732;2023-08-21T02:45:19;10.75;;;9.73;;
80175;SDS011;71945;42.122;24.732;2023-08-21T02:47:45;13.15;;;9.38;;
80175;SDS011;71945;42.122;24.732;2023-08-21T02:50:10;12.07;;;10.25;;
80175;SDS011;71945;42.122;24.732;2023-08-21T02:52:36;15.60;;;10.48;;
80175;SDS011;71945;42.122;24.732;2023-08-21T02:55:03;18.95;;;11.85;;
80175;SDS011;71945;42.122;24.732;2023-08-21T02:57:29;12.05;;;10.15;;
80175;SDS011;71945;42.122;24.732;2023-08-21T02:59:55;12.65;;;10.10;;
80175;SDS011;71945;42.122;24.732;2023-08-21T03:02:21;10.95;;;9.23;;
80175;SDS011;71945;42.122;24.732;2023-08-21T03:04:47;17.27;;;10.80;;
80175;SDS011;71945;42.122;24.732;2023-08-21T03:07:13;11.45;;;10.02;;
80175;SDS011;71945;42.122;24.732;2023-08-21T03:09:40;14.48;;;10.40;;
80175;SDS011;71945;42.122;24.732;2023-08-21T03:12:06;12.18;;;10.98;;
80175;SDS011;71945;42.122;24.732;2023-08-21T03:14:32;9.88;;;8.88;;
80175;SDS011;71945;42.122;24.732;2023-08-21T03:16:58;10.52;;;9.43;;
80175;SDS011;71945;42.122;24.732;2023-08-21T03:19:24;15.13;;;9.02;;
80175;SDS011;71945;42.122;24.732;2023-08-21T03:21:49;11.05;;;9.63;;
80175;SDS011;71945;42.122;24.732;2023-08-21T03:24:16;11.32;;;9.68;;
80175;SDS011;71945;42.122;24.732;2023-08-21T03:26:42;11.18;;;10.00;;
80175;SDS011;71945;42.122;24.732;2023-08-21T03:29:07;11.75;;;9.50;;
80175;SDS011;71945;42.122;24.732;2023-08-21T03:31:33;19.88;;;9.68;;
80175;SDS011;71945;42.122;24.732;2023-08-21T03:34:02;14.00;;;9.75;;
80175;SDS011;71945;42.122;24.732;2023-08-21T03:36:27;23.88;;;9.43;;
80175;SDS011;71945;42.122;24.732;2023-08-21T03:38:59;13.75;;;9.43;;
80175;SDS011;71945;42.122;24.732;2023-08-21T03:41:26;15.85;;;9.63;;
80175;SDS011;71945;42.122;24.732;2023-08-21T03:43:52;12.90;;;9.65;;
80175;SDS011;71945;42.122;24.732;2023-08-21T03:46:18;13.23;;;9.80;;
80175;SDS011;71945;42.122;24.732;2023-08-21T03:48:44;14.23;;;9.80;;
80175;SDS011;71945;42.122;24.732;2023-08-21T03:51:10;15.10;;;10.23;;
80175;SDS011;71945;42.122;24.732;2023-08-21T03:53:35;13.50;;;9.43;;
80175;SDS011;71945;42.122;24.732;2023-08-21T03:56:01;14.20;;;9.85;;
80175;SDS011;71945;42.122;24.732;2023-08-21T03:58:27;16.08;;;10.23;;
80175;SDS011;71945;42.122;24.732;2023-08-21T04:00:53;12.20;;;9.30;;
80175;SDS011;71945;42.122;24.732;2023-08-21T04:03:19;10.95;;;9.73;;
80175;SDS011;71945;42.122;24.732;2023-08-21T04:05:45;17.67;;;9.20;;
80175;SDS011;71945;42.122;24.732;2023-08-21T04:08:11;10.43;;;9.20;;
80175;SDS011;71945;42.122;24.732;2023-08-21T04:10:37;11.23;;;9.52;;
80175;SDS011;71945;42.122;24.732;2023-08-21T04:13:03;11.57;;;9.20;;
80175;SDS011;71945;42.122;24.732;2023-08-21T04:15:30;20.52;;;9.45;;
80175;SDS011;71945;42.122;24.732;2023-08-21T04:17:56;11.35;;;8.95;;
80175;SDS011;71945;42.122;24.732;2023-08-21T04:20:22;14.32;;;9.57;;
80175;SDS011;71945;42.122;24.732;2023-08-21T04:22:48;17.15;;;9.05;;
80175;SDS011;71945;42.122;24.732;2023-08-21T04:25:14;12.88;;;9.27;;
80175;SDS011;71945;42.122;24.732;2023-08-21T04:27:40;13.05;;;8.90;;
80175;SDS011;71945;42.122;24.732;2023-08-21T04:30:06;13.00;;;9.48;;
80175;SDS011;71945;42.122;24.732;2023-08-21T04:32:33;17.85;;;9.85;;
80175;SDS011;71945;42.122;24.732;2023-08-21T04:34:58;14.95;;;9.65;;
80175;SDS011;71945;42.122;24.732;2023-08-21T04:37:24;18.02;;;10.18;;
80175;SDS011;71945;42.122;24.732;2023-08-21T04:39:53;15.38;;;10.05;;
80175;SDS011;71945;42.122;24.732;2023-08-21T04:42:19;18.15;;;9.43;;
80175;SDS011;71945;42.122;24.732;2023-08-21T04:44:45;13.65;;;8.82;;
80175;SDS011;71945;42.122;24.732;2023-08-21T04:47:23;21.70;;;11.18;;
80175;SDS011;71945;42.122;24.732;2023-08-21T04:49:54;16.75;;;9.98;;
80175;SDS011;71945;42.122;24.732;2023-08-21T04:52:23;17.38;;;10.10;;
80175;SDS011;71945;42.122;24.732;2023-08-21T04:54:50;12.00;;;9.05;;
80175;SDS011;71945;42.122;24.732;2023-08-21T04:57:17;13.30;;;10.35;;
80175;SDS011;71945;42.122;24.732;2023-08-21T04:59:43;17.88;;;9.27;;
80175;SDS011;71945;42.122;24.732;2023-08-21T05:02:09;11.20;;;10.00;;
80175;SDS011;71945;42.122;24.732;2023-08-21T05:04:36;16.88;;;10.40;;
80175;SDS011;71945;42.122;24.732;2023-08-21T05:07:02;15.15;;;13.20;;
80175;SDS011;71945;42.122;24.732;2023-08-21T05:09:29;21.67;;;10.95;;
80175;SDS011;71945;42.122;24.732;2023-08-21T05:11:55;18.02;;;10.50;;
80175;SDS011;71945;42.122;24.732;2023-08-21T05:14:21;27.60;;;11.25;;
80175;SDS011;71945;42.122;24.732;2023-08-21T05:16:48;39.83;;;11.98;;
80175;SDS011;71945;42.122;24.732;2023-08-21T05:19:14;30.05;;;12.45;;
80175;SDS011;71945;42.122;24.732;2023-08-21T05:21:40;27.60;;;12.40;;
80175;SDS011;71945;42.122;24.732;2023-08-21T05:24:06;17.23;;;10.88;;
80175;SDS011;71945;42.122;24.732;2023-08-21T05:26:31;25.52;;;12.48;;
80175;SDS011;71945;42.122;24.732;2023-08-21T05:28:57;22.92;;;11.80;;
80175;SDS011;71945;42.122;24.732;2023-08-21T05:31:23;36.60;;;11.93;;
80175;SDS011;71945;42.122;24.732;2023-08-21T05:33:48;20.60;;;11.15;;
80175;SDS011;71945;42.122;24.732;2023-08-21T05:36:14;23.10;;;10.25;;
80175;SDS011;71945;42.122;24.732;2023-08-21T05:38:39;21.50;;;10.57;;
80175;SDS011;71945;42.122;24.732;2023-08-21T05:41:05;21.35;;;10.48;;
80175;SDS011;71945;42.122;24.732;2023-08-21T05:43:31;29.63;;;10.85;;
80175;SDS011;71945;42.122;24.732;2023-08-21T05:45:57;27.25;;;9.63;;
80175;SDS011;71945;42.122;24.732;2023-08-21T05:48:22;19.92;;;9.50;;
80175;SDS011;71945;42.122;24.732;2023-08-21T05:50:51;44.05;;;11.05;;
80175;SDS011;71945;42.122;24.732;2023-08-21T05:53:18;26.90;;;9.57;;
80175;SDS011;71945;42.122;24.732;2023-08-21T05:55:44;20.70;;;9.32;;
80175;SDS011;71945;42.122;24.732;2023-08-21T05:58:09;16.33;;;8.85;;
80175;SDS011;71945;42.122;24.732;2023-08-21T06:00:38;20.33;;;9.30;;
80175;SDS011;71945;42.122;24.732;2023-08-21T06:03:04;15.25;;;8.75;;
80175;SDS011;71945;42.122;24.732;2023-08-21T06:05:30;38.20;;;9.13;;
80175;SDS011;71945;42.122;24.732;2023-08-21T06:07:56;26.38;;;9.25;;
80175;SDS011;71945;42.122;24.732;2023-08-21T06:10:21;19.38;;;8.50;;
80175;SDS011;71945;42.122;24.732;2023-08-21T06:12:47;20.88;;;8.85;;
80175;SDS011;71945;42.122;24.732;2023-08-21T06:15:13;22.48;;;9.27;;
80175;SDS011;71945;42.122;24.732;2023-08-21T06:17:39;18.65;;;9.10;;
80175;SDS011;71945;42.122;24.732;2023-08-21T06:20:07;18.63;;;8.57;;
80175;SDS011;71945;42.122;24.732;2023-08-21T06:22:36;14.60;;;8.45;;
80175;SDS011;71945;42.122;24.732;2023-08-21T06:25:02;17.50;;;8.73;;
80175;SDS011;71945;42.122;24.732;2023-08-21T06:27:29;24.95;;;8.15;;
80175;SDS011;71945;42.122;24.732;2023-08-21T06:29:54;16.80;;;8.65;;
80175;SDS011;71945;42.122;24.732;2023-08-21T06:32:20;17.77;;;8.52;;
80175;SDS011;71945;42.122;24.732;2023-08-21T06:34:46;18.65;;;7.85;;
80175;SDS011;71945;42.122;24.732;2023-08-21T06:37:11;23.17;;;8.15;;
80175;SDS011;71945;42.122;24.732;2023-08-21T06:39:38;22.73;;;8.30;;
80175;SDS011;71945;42.122;24.732;2023-08-21T06:42:04;19.73;;;8.25;;
80175;SDS011;71945;42.122;24.732;2023-08-21T06:44:29;16.27;;;7.93;;
80175;SDS011;71945;42.122;24.732;2023-08-21T06:46:55;16.95;;;7.65;;
80175;SDS011;71945;42.122;24.732;2023-08-21T06:49:21;13.32;;;8.40;;
80175;SDS011;71945;42.122;24.732;2023-08-21T06:51:46;14.45;;;7.30;;
80175;SDS011;71945;42.122;24.732;2023-08-21T06:54:12;17.90;;;7.75;;
80175;SDS011;71945;42.122;24.732;2023-08-21T06:56:37;10.48;;;7.00;;
80175;SDS011;71945;42.122;24.732;2023-08-21T06:59:03;10.50;;;7.50;;
80175;SDS011;71945;42.122;24.732;2023-08-21T07:01:29;12.27;;;6.72;;
80175;SDS011;71945;42.122;24.732;2023-08-21T07:03:55;8.02;;;7.03;;
80175;SDS011;71945;42.122;24.732;2023-08-21T07:06:20;11.73;;;6.63;;
80175;SDS011;71945;42.122;24.732;2023-08-21T07:08:46;13.95;;;7.93;;
80175;SDS011;71945;42.122;24.732;2023-08-21T07:11:12;10.27;;;7.28;;
80175;SDS011;71945;42.122;24.732;2023-08-21T07:13:38;15.18;;;7.55;;
80175;SDS011;71945;42.122;24.732;2023-08-21T07:16:04;15.60;;;7.40;;
80175;SDS011;71945;42.122;24.732;2023-08-21T07:18:31;10.85;;;7.55;;
80175;SDS011;71945;42.122;24.732;2023-08-21T07:20:58;18.40;;;7.10;;
80175;SDS011;71945;42.122;24.732;2023-08-21T07:23:24;17.75;;;7.40;;
80175;SDS011;71945;42.122;24.732;2023-08-21T07:25:50;18.95;;;7.55;;
80175;SDS011;71945;42.122;24.732;2023-08-21T07:28:16;17.02;;;8.23;;
80175;SDS011;71945;42.122;24.732;2023-08-21T07:30:42;17.63;;;8.50;;
80175;SDS011;71945;42.122;24.732;2023-08-21T07:33:07;13.32;;;7.63;;
80175;SDS011;71945;42.122;24.732;2023-08-21T07:35:33;19.85;;;7.40;;
80175;SDS011;71945;42.122;24.732;2023-08-21T07:37:59;14.20;;;7.53;;
80175;SDS011;71945;42.122;24.732;2023-08-21T07:40:24;14.73;;;7.30;;
80175;SDS011;71945;42.122;24.732;2023-08-21T07:42:50;20.95;;;7.43;;
80175;SDS011;71945;42.122;24.732;2023-08-21T07:45:16;14.80;;;7.07;;
80175;SDS011;71945;42.122;24.732;2023-08-21T07:47:42;15.95;;;7.18;;
80175;SDS011;71945;42.122;24.732;2023-08-21T07:50:08;9.48;;;6.85;;
80175;SDS011;71945;42.122;24.732;2023-08-21T07:52:34;11.95;;;7.30;;
80175;SDS011;71945;42.122;24.732;2023-08-21T07:55:00;18.83;;;7.25;;
80175;SDS011;71945;42.122;24.732;2023-08-21T07:57:27;15.15;;;6.45;;
80175;SDS011;71945;42.122;24.732;2023-08-21T07:59:53;7.72;;;6.10;;
80175;SDS011;71945;42.122;24.732;2023-08-21T08:02:19;16.75;;;6.13;;
80175;SDS011;71945;42.122;24.732;2023-08-21T08:04:45;18.00;;;6.63;;
80175;SDS011;71945;42.122;24.732;2023-08-21T08:07:11;15.48;;;6.40;;
80175;SDS011;71945;42.122;24.732;2023-08-21T08:09:36;11.00;;;6.68;;
80175;SDS011;71945;42.122;24.732;2023-08-21T08:12:02;9.00;;;6.88;;
80175;SDS011;71945;42.122;24.732;2023-08-21T08:14:28;8.75;;;6.38;;
80175;SDS011;71945;42.122;24.732;2023-08-21T08:16:54;9.02;;;5.95;;
80175;SDS011;71945;42.122;24.732;2023-08-21T08:19:20;10.27;;;6.53;;
80175;SDS011;71945;42.122;24.732;2023-08-21T08:21:48;12.32;;;6.63;;
80175;SDS011;71945;42.122;24.732;2023-08-21T08:24:14;9.02;;;6.18;;
80175;SDS011;71945;42.122;24.732;2023-08-21T08:26:39;8.13;;;6.32;;
80175;SDS011;71945;42.122;24.732;2023-08-21T08:29:07;9.93;;;6.22;;
80175;SDS011;71945;42.122;24.732;2023-08-21T08:31:33;11.55;;;6.03;;
80175;SDS011;71945;42.122;24.732;2023-08-21T08:33:59;11.70;;;6.38;;
80175;SDS011;71945;42.122;24.732;2023-08-21T08:36:24;12.25;;;6.53;;
80175;SDS011;71945;42.122;24.732;2023-08-21T08:38:50;11.60;;;6.22;;
80175;SDS011;71945;42.122;24.732;2023-08-21T08:41:24;11.07;;;6.28;;
80175;SDS011;71945;42.122;24.732;2023-08-21T08:43:55;10.38;;;6.65;;
80175;SDS011;71945;42.122;24.732;2023-08-21T08:46:23;10.50;;;6.82;;
80175;SDS011;71945;42.122;24.732;2023-08-21T08:48:50;13.05;;;6.32;;
80175;SDS011;71945;42.122;24.732;2023-08-21T08:51:17;10.13;;;6.18;;
80175;SDS011;71945;42.122;24.732;2023-08-21T08:53:43;7.78;;;6.75;;
80175;SDS011;71945;42.122;24.732;2023-08-21T08:56:09;8.10;;;6.35;;
80175;SDS011;71945;42.122;24.732;2023-08-21T08:58:35;10.70;;;6.68;;
80175;SDS011;71945;42.122;24.732;2023-08-21T09:01:01;8.98;;;6.45;;
80175;SDS011;71945;42.122;24.732;2023-08-21T09:03:27;9.95;;;6.43;;
80175;SDS011;71945;42.122;24.732;2023-08-21T09:05:54;11.32;;;7.00;;
80175;SDS011;71945;42.122;24.732;2023-08-21T09:08:20;8.27;;;6.13;;
80175;SDS011;71945;42.122;24.732;2023-08-21T09:10:45;12.55;;;6.50;;
80175;SDS011;71945;42.122;24.732;2023-08-21T09:13:15;9.90;;;6.47;;
80175;SDS011;71945;42.122;24.732;2023-08-21T09:15:45;9.20;;;6.07;;
80175;SDS011;71945;42.122;24.732;2023-08-21T09:18:17;10.00;;;6.70;;
80175;SDS011;71945;42.122;24.732;2023-08-21T09:20:43;7.47;;;6.63;;
80175;SDS011;71945;42.122;24.732;2023-08-21T09:23:13;11.10;;;6.95;;
80175;SDS011;71945;42.122;24.732;2023-08-21T09:25:40;8.35;;;5.68;;
80175;SDS011;71945;42.122;24.732;2023-08-21T09:28:07;10.60;;;6.07;;
80175;SDS011;71945;42.122;24.732;2023-08-21T09:30:52;12.73;;;6.93;;
80175;SDS011;71945;42.122;24.732;2023-08-21T09:33:23;9.70;;;5.85;;
80175;SDS011;71945;42.122;24.732;2023-08-21T09:35:52;10.23;;;6.45;;
80175;SDS011;71945;42.122;24.732;2023-08-21T09:38:19;8.43;;;6.32;;
80175;SDS011;71945;42.122;24.732;2023-08-21T09:40:51;7.53;;;6.65;;
80175;SDS011;71945;42.122;24.732;2023-08-21T09:43:21;7.72;;;7.00;;
80175;SDS011;71945;42.122;24.732;2023-08-21T09:45:50;7.32;;;5.97;;
80175;SDS011;71945;42.122;24.732;2023-08-21T09:48:23;9.55;;;6.50;;
80175;SDS011;71945;42.122;24.732;2023-08-21T09:50:51;9.70;;;6.35;;
80175;SDS011;71945;42.122;24.732;2023-08-21T09:53:17;7.28;;;5.97;;
80175;SDS011;71945;42.122;24.732;2023-08-21T09:55:44;14.02;;;7.20;;
80175;SDS011;71945;42.122;24.732;2023-08-21T09:58:10;9.80;;;6.82;;
80175;SDS011;71945;42.122;24.732;2023-08-21T10:00:37;11.75;;;6.78;;
80175;SDS011;71945;42.122;24.732;2023-08-21T10:03:06;11.40;;;6.25;;
80175;SDS011;71945;42.122;24.732;2023-08-21T10:05:33;10.05;;;6.15;;
80175;SDS011;71945;42.122;24.732;2023-08-21T10:08:01;10.27;;;6.07;;
80175;SDS011;71945;42.122;24.732;2023-08-21T10:10:29;8.82;;;6.28;;
80175;SDS011;71945;42.122;24.732;2023-08-21T10:12:57;9.57;;;6.65;;
80175;SDS011;71945;42.122;24.732;2023-08-21T10:15:24;12.93;;;5.88;;
80175;SDS011;71945;42.122;24.732;2023-08-21T10:17:50;10.98;;;6.68;;
80175;SDS011;71945;42.122;24.732;2023-08-21T10:20:20;12.02;;;7.93;;
80175;SDS011;71945;42.122;24.732;2023-08-21T10:25:18;10.57;;;6.60;;
80175;SDS011;71945;42.122;24.732;2023-08-21T10:30:19;8.70;;;6.78;;
80175;SDS011;71945;42.122;24.732;2023-08-21T10:32:47;8.82;;;7.25;;
80175;SDS011;71945;42.122;24.732;2023-08-21T10:35:14;9.20;;;7.03;;
80175;SDS011;71945;42.122;24.732;2023-08-21T10:40:29;6.45;;;5.88;;
80175;SDS011;71945;42.122;24.732;2023-08-21T10:42:55;7.50;;;6.38;;
80175;SDS011;71945;42.122;24.732;2023-08-21T10:45:21;8.85;;;6.72;;
80175;SDS011;71945;42.122;24.732;2023-08-21T10:47:46;10.50;;;6.28;;
80175;SDS011;71945;42.122;24.732;2023-08-21T10:50:14;8.27;;;6.32;;
80175;SDS011;71945;42.122;24.732;2023-08-21T10:52:41;13.02;;;6.22;;
80175;SDS011;71945;42.122;24.732;2023-08-21T10:55:10;7.93;;;5.70;;
80175;SDS011;71945;42.122;24.732;2023-08-21T10:57:36;7.65;;;6.32;;
80175;SDS011;71945;42.122;24.732;2023-08-21T11:00:21;6.93;;;5.82;;
80175;SDS011;71945;42.122;24.732;2023-08-21T11:02:48;7.50;;;6.65;;
80175;SDS011;71945;42.122;24.732;2023-08-21T11:05:15;8.57;;;6.13;;
80175;SDS011;71945;42.122;24.732;2023-08-21T11:10:12;7.13;;;5.55;;
80175;SDS011;71945;42.122;24.732;2023-08-21T11:12:47;8.35;;;6.10;;
80175;SDS011;71945;42.122;24.732;2023-08-21T11:15:15;9.13;;;5.90;;
80175;SDS011;71945;42.122;24.732;2023-08-21T11:17:41;10.70;;;5.90;;
80175;SDS011;71945;42.122;24.732;2023-08-21T11:20:07;11.65;;;5.75;;
80175;SDS011;71945;42.122;24.732;2023-08-21T11:22:33;9.60;;;5.32;;
80175;SDS011;71945;42.122;24.732;2023-08-21T11:24:59;11.73;;;5.72;;
80175;SDS011;71945;42.122;24.732;2023-08-21T11:27:25;7.20;;;5.43;;
80175;SDS011;71945;42.122;24.732;2023-08-21T11:29:51;8.63;;;5.40;;
80175;SDS011;71945;42.122;24.732;2023-08-21T11:32:21;9.18;;;5.28;;
80175;SDS011;71945;42.122;24.732;2023-08-21T11:34:49;10.23;;;5.95;;
80175;SDS011;71945;42.122;24.732;2023-08-21T11:37:16;9.35;;;5.72;;
80175;SDS011;71945;42.122;24.732;2023-08-21T11:42:19;7.45;;;5.20;;
80175;SDS011;71945;42.122;24.732;2023-08-21T11:44:48;11.20;;;5.75;;
80175;SDS011;71945;42.122;24.732;2023-08-21T11:47:17;9.90;;;5.43;;
80175;SDS011;71945;42.122;24.732;2023-08-21T11:49:45;11.63;;;5.32;;
80175;SDS011;71945;42.122;24.732;2023-08-21T11:52:18;10.88;;;5.32;;
80175;SDS011;71945;42.122;24.732;2023-08-21T11:54:50;14.35;;;6.35;;
80175;SDS011;71945;42.122;24.732;2023-08-21T11:57:17;7.35;;;5.60;;
80175;SDS011;71945;42.122;24.732;2023-08-21T11:59:43;8.00;;;5.65;;
80175;SDS011;71945;42.122;24.732;2023-08-21T12:02:21;10.40;;;6.53;;
80175;SDS011;71945;42.122;24.732;2023-08-21T12:05:04;7.25;;;5.82;;
80175;SDS011;71945;42.122;24.732;2023-08-21T12:07:30;15.10;;;5.95;;
80175;SDS011;71945;42.122;24.732;2023-08-21T12:09:57;8.80;;;5.75;;
80175;SDS011;71945;42.122;24.732;2023-08-21T12:12:23;6.78;;;5.75;;
80175;SDS011;71945;42.122;24.732;2023-08-21T12:14:49;11.50;;;5.80;;
80175;SDS011;71945;42.122;24.732;2023-08-21T12:17:14;13.63;;;5.22;;
80175;SDS011;71945;42.122;24.732;2023-08-21T12:19:40;8.48;;;5.45;;
80175;SDS011;71945;42.122;24.732;2023-08-21T12:22:07;15.05;;;5.55;;
80175;SDS011;71945;42.122;24.732;2023-08-21T12:24:33;8.15;;;5.35;;
80175;SDS011;71945;42.122;24.732;2023-08-21T12:26:59;12.55;;;6.20;;
80175;SDS011;71945;42.122;24.732;2023-08-21T12:29:24;7.13;;;5.90;;
80175;SDS011;71945;42.122;24.732;2023-08-21T12:31:50;11.00;;;6.03;;
80175;SDS011;71945;42.122;24.732;2023-08-21T12:34:18;17.42;;;5.53;;
80175;SDS011;71945;42.122;24.732;2023-08-21T12:36:44;10.52;;;5.90;;
80175;SDS011;71945;42.122;24.732;2023-08-21T12:39:09;11.05;;;5.85;;
80175;SDS011;71945;42.122;24.732;2023-08-21T12:41:35;8.10;;;5.65;;
80175;SDS011;71945;42.122;24.732;2023-08-21T12:44:01;7.63;;;5.97;;
80175;SDS011;71945;42.122;24.732;2023-08-21T12:46:33;11.57;;;5.90;;
80175;SDS011;71945;42.122;24.732;2023-08-21T12:49:00;9.05;;;5.68;;
80175;SDS011;71945;42.122;24.732;2023-08-21T12:51:27;10.48;;;6.10;;
80175;SDS011;71945;42.122;24.732;2023-08-21T12:53:53;9.10;;;5.50;;
80175;SDS011;71945;42.122;24.732;2023-08-21T12:56:19;7.38;;;6.00;;
80175;SDS011;71945;42.122;24.732;2023-08-21T12:58:46;5.72;;;5.10;;
80175;SDS011;71945;42.122;24.732;2023-08-21T13:01:12;8.30;;;5.70;;
80175;SDS011;71945;42.122;24.732;2023-08-21T13:03:39;9.02;;;5.63;;
80175;SDS011;71945;42.122;24.732;2023-08-21T13:06:12;8.60;;;5.95;;
80175;SDS011;71945;42.122;24.732;2023-08-21T13:08:38;11.38;;;5.60;;
80175;SDS011;71945;42.122;24.732;2023-08-21T13:11:05;6.90;;;5.57;;
80175;SDS011;71945;42.122;24.732;2023-08-21T13:13:31;9.32;;;5.45;;
80175;SDS011;71945;42.122;24.732;2023-08-21T13:15:57;9.57;;;5.10;;
80175;SDS011;71945;42.122;24.732;2023-08-21T13:18:23;10.15;;;5.03;;
80175;SDS011;71945;42.122;24.732;2023-08-21T13:20:49;8.20;;;5.00;;
80175;SDS011;71945;42.122;24.732;2023-08-21T13:23:15;9.88;;;5.50;;
80175;SDS011;71945;42.122;24.732;2023-08-21T13:25:40;8.93;;;5.68;;
80175;SDS011;71945;42.122;24.732;2023-08-21T13:28:06;8.77;;;5.57;;
80175;SDS011;71945;42.122;24.732;2023-08-21T13:30:32;11.48;;;5.90;;
80175;SDS011;71945;42.122;24.732;2023-08-21T13:32:58;7.85;;;5.10;;
80175;SDS011;71945;42.122;24.732;2023-08-21T13:35:23;9.18;;;5.43;;
80175;SDS011;71945;42.122;24.732;2023-08-21T13:37:49;8.93;;;5.45;;
80175;SDS011;71945;42.122;24.732;2023-08-21T13:40:15;10.40;;;5.32;;
80175;SDS011;71945;42.122;24.732;2023-08-21T13:42:45;9.70;;;5.50;;
80175;SDS011;71945;42.122;24.732;2023-08-21T13:45:14;10.25;;;5.82;;
80175;SDS011;71945;42.122;24.732;2023-08-21T13:47:42;7.40;;;6.10;;
80175;SDS011;71945;42.122;24.732;2023-08-21T13:50:09;8.50;;;5.47;;
80175;SDS011;71945;42.122;24.732;2023-08-21T13:52:36;9.38;;;5.28;;
80175;SDS011;71945;42.122;24.732;2023-08-21T13:55:04;10.18;;;6.28;;
80175;SDS011;71945;42.122;24.732;2023-08-21T13:57:30;9.23;;;5.72;;
80175;SDS011;71945;42.122;24.732;2023-08-21T13:59:58;7.28;;;6.60;;
80175;SDS011;71945;42.122;24.732;2023-08-21T14:02:24;8.13;;;7.03;;
80175;SDS011;71945;42.122;24.732;2023-08-21T14:04:50;12.18;;;7.28;;
80175;SDS011;71945;42.122;24.732;2023-08-21T14:07:15;15.27;;;7.57;;
80175;SDS011;71945;42.122;24.732;2023-08-21T14:09:41;14.93;;;9.00;;
80175;SDS011;71945;42.122;24.732;2023-08-21T14:12:07;13.13;;;7.55;;
80175;SDS011;71945;42.122;24.732;2023-08-21T14:14:36;15.75;;;6.70;;
80175;SDS011;71945;42.122;24.732;2023-08-21T14:17:02;15.65;;;6.97;;
80175;SDS011;71945;42.122;24.732;2023-08-21T14:19:28;15.02;;;7.13;;
80175;SDS011;71945;42.122;24.732;2023-08-21T14:21:54;15.88;;;6.85;;
80175;SDS011;71945;42.122;24.732;2023-08-21T14:24:20;13.65;;;7.10;;
80175;SDS011;71945;42.122;24.732;2023-08-21T14:26:46;7.20;;;6.50;;
80175;SDS011;71945;42.122;24.732;2023-08-21T14:29:11;6.80;;;5.90;;
80175;SDS011;71945;42.122;24.732;2023-08-21T14:31:37;10.02;;;6.80;;
80175;SDS011;71945;42.122;24.732;2023-08-21T14:34:03;10.50;;;6.30;;
80175;SDS011;71945;42.122;24.732;2023-08-21T14:36:28;12.25;;;6.25;;
80175;SDS011;71945;42.122;24.732;2023-08-21T14:38:54;11.07;;;6.57;;